PGT870R EDDH-LTAI
Flight info
| Callsign | PGT870R |
|---|---|
| Flight time | N/A |
| Altitude | 37000 |
| Route | AMLUH2G AMLUH M852 DENIX DCT ZUCKA DCT EKPEK DCT OMELO DCT VLM DCT NAVTI DCT BEGLA DCT KEROP DCT ESIRI DCT OBLAK DCT NISVA DCT OTKOK N131 RODIP DCT BELGI UN131 KULAR UT39 NESIL |
| Aircraft | A320/M-SDE3FGHIRWY/LB1 |
Departure
| Time | 2026-05-01 09:09 |
|---|---|
| Airport | Hamburg Helmut Schmidt Airport (EDDH) |
Arrival
| Time | N/A |
|---|---|
| Airport | Antalya International Airport (LTAI) |
| Time | Latitude | Longitude | Altitude | Speed | Heading |
|---|---|---|---|---|---|
| 2026-05-01 08:54 | 53.63074 | 10.00377 | 48 ft | 0 kts | 94° |
| 2026-05-01 08:57 | 53.63074 | 10.00364 | 48 ft | 4 kts | 95° |
| 2026-05-01 08:57 | 53.63077 | 10.00319 | 35 ft | 4 kts | 98° |
| 2026-05-01 08:58 | 53.63082 | 10.00275 | 46 ft | 4 kts | 108° |
| 2026-05-01 08:58 | 53.63094 | 10.00237 | 46 ft | 4 kts | 145° |
| 2026-05-01 08:58 | 53.63107 | 10.00229 | 45 ft | 1 kts | 182° |
| 2026-05-01 08:58 | 53.63110 | 10.00229 | 45 ft | 1 kts | 182° |
| 2026-05-01 09:02 | 53.63107 | 10.00229 | 48 ft | 2 kts | 182° |
| 2026-05-01 09:03 | 53.63073 | 10.00224 | 48 ft | 6 kts | 187° |
| 2026-05-01 09:03 | 53.63042 | 10.00197 | 47 ft | 4 kts | 211° |
| 2026-05-01 09:03 | 53.63031 | 10.00170 | 48 ft | 2 kts | 254° |
| 2026-05-01 09:03 | 53.63028 | 10.00153 | 48 ft | 3 kts | 251° |
| 2026-05-01 09:04 | 53.63010 | 10.00121 | 48 ft | 0 kts | 214° |
| 2026-05-01 09:04 | 53.62989 | 10.00097 | 47 ft | 9 kts | 214° |
| 2026-05-01 09:05 | 53.62933 | 10.00035 | 48 ft | 7 kts | 214° |
| 2026-05-01 09:05 | 53.62869 | 10.00040 | 47 ft | 11 kts | 193° |
| 2026-05-01 09:05 | 53.62844 | 9.99960 | 48 ft | 6 kts | 243° |
| 2026-05-01 09:05 | 53.62842 | 9.99953 | 47 ft | 0 kts | 242° |
| 2026-05-01 09:07 | 53.62842 | 9.99952 | 47 ft | 0 kts | 242° |
| 2026-05-01 09:07 | 53.62841 | 9.99949 | 47 ft | 1 kts | 243° |
| 2026-05-01 09:07 | 53.62829 | 9.99909 | 47 ft | 8 kts | 243° |
| 2026-05-01 09:07 | 53.62824 | 9.99779 | 42 ft | 15 kts | 318° |
| 2026-05-01 09:08 | 53.62894 | 9.99720 | 45 ft | 0 kts | 333° |
| 2026-05-01 09:08 | 53.62896 | 9.99718 | 45 ft | 5 kts | 333° |
| 2026-05-01 09:08 | 53.63126 | 9.99525 | 46 ft | 72 kts | 332° |
| 2026-05-01 09:08 | 53.63754 | 9.98983 | 48 ft | 131 kts | 333° |
| 2026-05-01 09:09 | 53.64709 | 9.98163 | 62 ft | 175 kts | 333° |
| 2026-05-01 09:09 | 53.65841 | 9.97191 | 520 ft | 181 kts | 333° |
| 2026-05-01 09:09 | 53.66951 | 9.96213 | 1076 ft | 182 kts | 332° |
| 2026-05-01 09:09 | 53.68078 | 9.95236 | 1695 ft | 183 kts | 334° |
| 2026-05-01 09:10 | 53.69381 | 9.94637 | 2154 ft | 207 kts | 358° |
| 2026-05-01 09:10 | 53.70885 | 9.94648 | 2881 ft | 222 kts | 1° |
| 2026-05-01 09:10 | 53.72427 | 9.94997 | 3875 ft | 227 kts | 26° |
| 2026-05-01 09:10 | 53.73657 | 9.96575 | 4637 ft | 225 kts | 57° |
| 2026-05-01 09:11 | 53.74189 | 9.98952 | 5298 ft | 220 kts | 88° |
| 2026-05-01 09:11 | 53.74244 | 10.01540 | 6013 ft | 221 kts | 95° |
| 2026-05-01 09:11 | 53.73966 | 10.04087 | 6685 ft | 225 kts | 111° |
| 2026-05-01 09:11 | 53.73233 | 10.06553 | 6974 ft | 247 kts | 120° |
| 2026-05-01 09:12 | 53.72346 | 10.09176 | 7388 ft | 264 kts | 120° |
| 2026-05-01 09:12 | 53.71432 | 10.11894 | 8120 ft | 268 kts | 120° |
| 2026-05-01 09:12 | 53.70507 | 10.14651 | 8876 ft | 271 kts | 120° |
| 2026-05-01 09:12 | 53.69558 | 10.17425 | 9653 ft | 274 kts | 124° |
| 2026-05-01 09:13 | 53.68273 | 10.19805 | 10391 ft | 278 kts | 141° |
| 2026-05-01 09:13 | 53.66575 | 10.21404 | 11045 ft | 283 kts | 159° |
| 2026-05-01 09:13 | 53.64628 | 10.22344 | 11365 ft | 302 kts | 162° |
| 2026-05-01 09:13 | 53.62521 | 10.23307 | 11498 ft | 325 kts | 163° |
| 2026-05-01 09:14 | 53.60265 | 10.24334 | 11625 ft | 346 kts | 163° |
| 2026-05-01 09:14 | 53.57875 | 10.25424 | 11850 ft | 362 kts | 163° |
| 2026-05-01 09:14 | 53.55422 | 10.26540 | 12377 ft | 368 kts | 163° |
| 2026-05-01 09:14 | 53.52936 | 10.27668 | 12982 ft | 372 kts | 163° |
| 2026-05-01 09:15 | 53.50459 | 10.28793 | 13580 ft | 375 kts | 162° |
| 2026-05-01 09:15 | 53.47900 | 10.29960 | 14177 ft | 378 kts | 162° |
| 2026-05-01 09:15 | 53.45389 | 10.31109 | 14713 ft | 381 kts | 163° |
| 2026-05-01 09:15 | 53.42786 | 10.32299 | 15220 ft | 384 kts | 163° |
| 2026-05-01 09:16 | 53.40229 | 10.33462 | 15705 ft | 388 kts | 163° |
| 2026-05-01 09:16 | 53.37608 | 10.34643 | 16167 ft | 392 kts | 163° |
| 2026-05-01 09:16 | 53.34967 | 10.35831 | 16634 ft | 395 kts | 163° |
| 2026-05-01 09:17 | 53.29609 | 10.38238 | 17578 ft | 402 kts | 163° |
| 2026-05-01 09:17 | 53.26905 | 10.39449 | 18031 ft | 405 kts | 163° |
| 2026-05-01 09:17 | 53.21417 | 10.41897 | 18907 ft | 411 kts | 163° |
| 2026-05-01 09:18 | 53.18648 | 10.43129 | 19301 ft | 414 kts | 163° |
| 2026-05-01 09:18 | 53.13053 | 10.45608 | 20072 ft | 419 kts | 164° |
| 2026-05-01 09:19 | 53.07318 | 10.47678 | 20853 ft | 425 kts | 168° |
| 2026-05-01 09:19 | 53.04402 | 10.48539 | 21230 ft | 427 kts | 169° |
| 2026-05-01 09:19 | 53.01462 | 10.49367 | 21606 ft | 430 kts | 169° |
| 2026-05-01 09:20 | 52.95539 | 10.51076 | 22331 ft | 434 kts | 168° |
| 2026-05-01 09:20 | 52.89603 | 10.52891 | 23012 ft | 439 kts | 168° |
| 2026-05-01 09:21 | 52.83570 | 10.54775 | 23703 ft | 443 kts | 168° |
| 2026-05-01 09:21 | 52.80531 | 10.55724 | 24034 ft | 445 kts | 168° |
| 2026-05-01 09:21 | 52.74412 | 10.57618 | 24581 ft | 450 kts | 168° |
| 2026-05-01 09:22 | 52.68228 | 10.59515 | 25115 ft | 454 kts | 168° |
| 2026-05-01 09:22 | 52.61991 | 10.61420 | 25632 ft | 457 kts | 168° |
| 2026-05-01 09:23 | 52.58857 | 10.62373 | 25888 ft | 459 kts | 168° |
| 2026-05-01 09:23 | 52.52550 | 10.64288 | 26397 ft | 462 kts | 168° |
| 2026-05-01 09:24 | 52.46243 | 10.66197 | 26846 ft | 466 kts | 168° |
| 2026-05-01 09:24 | 52.43049 | 10.67166 | 27073 ft | 468 kts | 168° |
| 2026-05-01 09:24 | 52.36637 | 10.69098 | 27679 ft | 467 kts | 168° |
| 2026-05-01 09:25 | 52.30252 | 10.71019 | 28363 ft | 466 kts | 168° |
| 2026-05-01 09:25 | 52.23886 | 10.72941 | 29021 ft | 465 kts | 168° |
| 2026-05-01 09:26 | 52.20698 | 10.73899 | 29349 ft | 464 kts | 168° |
| 2026-05-01 09:26 | 52.14375 | 10.75785 | 30008 ft | 463 kts | 168° |
| 2026-05-01 09:26 | 52.11181 | 10.76734 | 30354 ft | 462 kts | 168° |
| 2026-05-01 09:27 | 52.04869 | 10.78606 | 30933 ft | 461 kts | 168° |
| 2026-05-01 09:27 | 52.01703 | 10.79548 | 31194 ft | 461 kts | 169° |
| 2026-05-01 09:27 | 51.98593 | 10.80473 | 31425 ft | 461 kts | 169° |
| 2026-05-01 09:28 | 51.95395 | 10.81422 | 31697 ft | 461 kts | 168° |
| 2026-05-01 09:28 | 51.92255 | 10.82351 | 31947 ft | 461 kts | 168° |
| 2026-05-01 09:28 | 51.89092 | 10.83284 | 32214 ft | 461 kts | 168° |
| 2026-05-01 09:28 | 51.85947 | 10.84211 | 32474 ft | 461 kts | 168° |
| 2026-05-01 09:29 | 51.79653 | 10.86070 | 33023 ft | 460 kts | 169° |
| 2026-05-01 09:29 | 51.76520 | 10.86988 | 33268 ft | 460 kts | 168° |
| 2026-05-01 09:30 | 51.70537 | 10.90450 | 33754 ft | 456 kts | 147° |
| 2026-05-01 09:30 | 51.67971 | 10.93452 | 34007 ft | 454 kts | 136° |
| 2026-05-01 09:30 | 51.64155 | 11.01340 | 34468 ft | 449 kts | 114° |
| 2026-05-01 09:31 | 51.62852 | 11.05905 | 34653 ft | 448 kts | 112° |
| 2026-05-01 09:31 | 51.61567 | 11.10506 | 34870 ft | 448 kts | 112° |
| 2026-05-01 09:31 | 51.59004 | 11.19593 | 35326 ft | 447 kts | 112° |
| 2026-05-01 09:32 | 51.57704 | 11.24186 | 35557 ft | 447 kts | 112° |
| 2026-05-01 09:32 | 51.55133 | 11.33281 | 35948 ft | 446 kts | 112° |
| 2026-05-01 09:32 | 51.53849 | 11.37808 | 36130 ft | 446 kts | 112° |